ESGJ/JKG METAR and TAF weather

Enter ICAO airport designator
Station Type Date Time Source
ESGJ METAR 2018/01/24 07:20 UTC NOAA

ESGJ 240720Z 23014KT 9999 SCT012 BKN025 04/04 Q1002 R19/790070


Station Type Date Time Source
ESGJ Decoded METAR 2018/01/24 07:20 UTC NOAA

Jonkoping Flygplats, Sweden (ESGJ) 57-46N 014-05E 232M
Jan 24, 2018 - 02:20 AM EST / 2018.01.24 0720 UTC
Wind: from the SW (230 degrees) at 16 MPH (14 KT):0
Visibility: greater than 7 mile(s):0
Sky conditions: mostly cloudy
Temperature: 39 F (4 C)
Dew Point: 39 F (4 C)
Relative Humidity: 100%
Pressure (altimeter): 29.59 in. Hg (1002 hPa)
ob: ESGJ 240720Z 23014KT 9999 SCT012 BKN025 04/04 Q1002 R19/790070
cycle: 7

Station Type Date Time Source
ESGJ TAF 2015/05/01 23:06 UTC NOAA

TAF TAF ESGJ 302359Z 3023/0101 CNL


Example: see airport list